createdAt,value
2023-01-30T00:00:07.305Z,4.70
2023-01-30T00:02:35.318Z,4.80
2023-01-30T00:05:03.523Z,4.80
2023-01-30T00:07:31.508Z,4.80
2023-01-30T00:10:02.317Z,4.20
2023-01-30T00:12:30.658Z,4.30
2023-01-30T00:14:58.519Z,4.30
2023-01-30T00:17:29.168Z,4.50
2023-01-30T00:19:57.465Z,4.10
2023-01-30T00:22:25.652Z,4.30
2023-01-30T00:24:55.542Z,4.00
2023-01-30T00:27:23.804Z,5.20
2023-01-30T00:30:02.207Z,5.10
2023-01-30T00:32:32.302Z,4.20
2023-01-30T00:35:00.380Z,3.90
2023-01-30T00:37:30.869Z,3.80
2023-01-30T00:39:58.902Z,3.60
2023-01-30T00:42:47.263Z,3.80
2023-01-30T00:45:33.952Z,3.70
2023-01-30T00:48:01.911Z,3.90
2023-01-30T00:50:42.587Z,3.40
2023-01-30T00:53:15.599Z,3.70
2023-01-30T00:55:45.102Z,3.90
2023-01-30T00:58:13.437Z,3.80
2023-01-30T01:00:42.974Z,3.70
2023-01-30T01:03:11.343Z,3.90
2023-01-30T01:05:39.468Z,3.70
2023-01-30T01:08:07.535Z,3.80
2023-01-30T01:10:35.667Z,4.30
2023-01-30T01:13:04.064Z,3.70
2023-01-30T01:15:34.438Z,4.00
2023-01-30T01:18:02.434Z,3.90
2023-01-30T01:20:31.731Z,3.90
2023-01-30T01:22:59.819Z,3.90
2023-01-30T01:25:27.750Z,4.10
2023-01-30T01:27:55.918Z,4.00
2023-01-30T01:30:25.118Z,3.60
2023-01-30T01:32:53.063Z,4.30
2023-01-30T01:35:20.951Z,4.00
2023-01-30T01:37:48.970Z,4.20
2023-01-30T01:40:37.387Z,4.20
2023-01-30T01:43:18.983Z,3.90
2023-01-30T01:45:48.601Z,3.60
2023-01-30T01:48:21.204Z,3.50
2023-01-30T01:51:17.374Z,3.50
2023-01-30T01:53:50.429Z,3.50
2023-01-30T01:56:18.556Z,3.60
2023-01-30T01:58:49.690Z,3.70
2023-01-30T02:01:19.148Z,3.30
2023-01-30T02:03:50.733Z,3.90
2023-01-30T02:06:18.653Z,3.60
2023-01-30T02:08:55.484Z,3.90
2023-01-30T02:11:36.368Z,3.60
2023-01-30T02:14:05.966Z,3.60
2023-01-30T02:16:33.942Z,3.30
2023-01-30T02:19:06.832Z,3.60
2023-01-30T02:21:40.966Z,3.30
2023-01-30T02:24:31.636Z,3.20
2023-01-30T02:27:37.720Z,3.40
2023-01-30T02:30:16.332Z,3.40
2023-01-30T02:32:48.051Z,3.80
2023-01-30T02:35:55.878Z,3.20
2023-01-30T02:38:32.013Z,3.00
2023-01-30T02:41:37.255Z,3.20
2023-01-30T02:44:12.881Z,3.60
2023-01-30T02:47:08.147Z,3.40
2023-01-30T02:49:47.270Z,3.00
2023-01-30T02:52:16.799Z,3.00
2023-01-30T02:54:45.341Z,2.90
2023-01-30T02:57:23.889Z,2.80
2023-01-30T02:59:58.759Z,2.80
2023-01-30T03:02:37.109Z,3.00
2023-01-30T03:05:47.784Z,3.00
2023-01-30T03:08:41.809Z,2.90
2023-01-30T03:11:09.794Z,2.90
2023-01-30T03:13:38.141Z,3.10
2023-01-30T03:16:18.538Z,3.20
2023-01-30T03:18:47.246Z,3.00
2023-01-30T03:21:17.325Z,3.30
2023-01-30T03:23:46.939Z,4.00
2023-01-30T03:26:18.862Z,4.40
2023-01-30T03:28:48.250Z,4.10
2023-01-30T03:31:16.316Z,4.50
2023-01-30T03:33:44.524Z,4.90
2023-01-30T03:36:13.233Z,4.50
2023-01-30T03:38:41.326Z,4.70
2023-01-30T03:41:09.207Z,4.30
2023-01-30T06:25:50.927Z,7.00
2023-01-30T06:28:19.139Z,7.20
2023-01-30T06:30:48.708Z,7.30
2023-01-30T06:33:17.098Z,7.00
2023-01-30T06:35:47.552Z,7.10
2023-01-30T06:38:15.474Z,7.40
2023-01-30T06:40:47.605Z,7.20
2023-01-30T06:43:16.968Z,7.00
2023-01-30T06:45:44.781Z,7.00
2023-01-30T06:48:12.699Z,7.30
2023-01-30T06:50:40.689Z,7.40
2023-01-30T06:53:08.681Z,7.50
2023-01-30T06:55:38.395Z,7.20
2023-01-30T06:58:08.026Z,7.30
2023-01-30T07:00:36.579Z,7.30
2023-01-30T07:03:04.480Z,7.40
2023-01-30T07:05:33.801Z,7.00
2023-01-30T07:08:03.539Z,6.40
2023-01-30T07:10:36.022Z,7.00
2023-01-30T07:13:04.072Z,7.10
2023-01-30T07:15:32.498Z,7.10
2023-01-30T07:18:03.498Z,7.50
2023-01-30T07:20:35.149Z,6.90
2023-01-30T07:23:03.082Z,7.00
2023-01-30T07:25:31.053Z,7.00
2023-01-30T07:28:00.584Z,7.00
2023-01-30T07:30:30.565Z,6.80
2023-01-30T07:32:59.585Z,6.60
2023-01-30T07:35:28.823Z,7.10
2023-01-30T07:37:56.787Z,7.20
2023-01-30T07:40:24.789Z,6.40
2023-01-30T07:43:03.809Z,6.60
2023-01-30T07:45:46.518Z,7.00
2023-01-30T07:48:17.031Z,6.50
2023-01-30T07:50:47.103Z,6.60
2023-01-30T07:53:16.175Z,7.40
2023-01-30T07:55:44.138Z,7.30
2023-01-30T07:58:15.952Z,7.20
2023-01-30T08:00:44.131Z,7.10
2023-01-30T08:03:15.272Z,8.00
2023-01-30T08:05:44.287Z,9.00
2023-01-30T08:08:13.436Z,7.20
2023-01-30T08:10:41.561Z,7.20
2023-01-30T08:13:10.096Z,8.20
2023-01-30T08:15:38.314Z,6.90
2023-01-30T08:18:07.990Z,6.30
2023-01-30T08:20:36.396Z,6.70
2023-01-30T08:23:04.301Z,7.40
2023-01-30T08:25:40.821Z,6.30
2023-01-30T08:28:08.868Z,8.60
2023-01-30T08:30:36.936Z,6.40
2023-01-30T08:33:04.891Z,6.60
2023-01-30T08:35:35.398Z,7.00
2023-01-30T08:38:07.149Z,6.30
2023-01-30T08:40:35.989Z,7.00
2023-01-30T08:43:04.225Z,6.60
2023-01-30T08:45:32.330Z,6.20
2023-01-30T08:48:01.175Z,6.40
2023-01-30T08:50:34.330Z,6.40
2023-01-30T08:53:06.269Z,6.20
2023-01-30T08:55:34.741Z,7.60
2023-01-30T08:58:03.397Z,7.20
2023-01-30T09:00:32.403Z,6.80
2023-01-30T09:03:03.007Z,6.30
2023-01-30T09:05:35.459Z,5.90
2023-01-30T09:08:03.804Z,7.00
2023-01-30T09:10:31.981Z,6.40
2023-01-30T09:13:19.714Z,6.10
2023-01-30T09:15:47.743Z,6.50
2023-01-30T09:18:15.819Z,6.60
2023-01-30T09:20:43.767Z,7.20
2023-01-30T09:23:11.855Z,7.10
2023-01-30T09:25:41.823Z,7.00
2023-01-30T09:28:10.083Z,6.80
2023-01-30T09:30:38.072Z,6.80
2023-01-30T09:33:10.091Z,7.00
2023-01-30T09:35:37.972Z,6.40
2023-01-30T09:38:05.874Z,5.70
2023-01-30T09:40:35.044Z,6.30
2023-01-30T09:43:45.047Z,6.50
2023-01-30T09:46:25.056Z,6.90
2023-01-30T09:49:20.041Z,6.30
2023-01-30T09:51:54.004Z,5.80
2023-01-30T09:54:26.821Z,6.70
2023-01-30T09:57:22.579Z,6.50
2023-01-30T10:00:08.622Z,6.50
2023-01-30T10:02:57.850Z,7.50
2023-01-30T10:05:39.976Z,7.90
2023-01-30T10:08:15.155Z,7.70
2023-01-30T10:11:00.838Z,7.50
2023-01-30T10:13:35.638Z,6.70
2023-01-30T10:16:18.801Z,7.10
2023-01-30T10:18:56.977Z,7.80
2023-01-30T10:21:41.689Z,7.40
2023-01-30T10:24:28.894Z,6.80
2023-01-30T10:26:56.847Z,10.30
2023-01-30T10:29:28.787Z,7.10
2023-01-30T10:32:05.152Z,8.40
2023-01-30T10:34:35.429Z,6.90
2023-01-30T10:37:13.103Z,5.70
2023-01-30T10:39:58.912Z,6.50
2023-01-30T10:42:51.440Z,6.20
2023-01-30T10:45:27.181Z,7.50
2023-01-30T10:48:34.447Z,9.80
2023-01-30T10:51:43.410Z,7.30
2023-01-30T10:54:21.941Z,8.00
2023-01-30T10:57:03.201Z,7.40
2023-01-30T10:59:56.432Z,7.90
2023-01-30T11:02:26.525Z,6.40
2023-01-30T11:05:03.386Z,6.40
2023-01-30T11:07:32.271Z,7.50
2023-01-30T11:10:00.682Z,7.00
2023-01-30T11:12:28.776Z,6.90
2023-01-30T11:15:04.020Z,6.60
2023-01-30T11:17:45.358Z,8.00
2023-01-30T11:20:18.276Z,6.60
2023-01-30T11:25:22.407Z,6.80
2023-01-30T11:28:04.127Z,7.30
2023-01-30T11:30:36.310Z,6.90
2023-01-30T11:33:14.318Z,6.90
2023-01-30T11:35:53.672Z,7.20
2023-01-30T11:38:27.373Z,7.30
2023-01-30T11:43:34.866Z,7.10
2023-01-30T11:46:04.121Z,11.90
2023-01-30T16:05:56.372Z,6.30
2023-01-30T16:08:27.482Z,6.50
2023-01-30T16:10:56.921Z,6.60
2023-01-30T16:13:25.514Z,6.20
2023-01-30T16:16:12.870Z,5.90
2023-01-30T16:18:52.744Z,5.70
2023-01-30T16:21:21.441Z,6.90
2023-01-30T16:24:03.346Z,6.50
2023-01-30T16:26:35.155Z,5.80
2023-01-30T16:29:07.225Z,6.60
2023-01-30T16:31:37.907Z,6.00
2023-01-30T16:34:05.909Z,5.80
2023-01-30T16:36:40.863Z,6.70
2023-01-30T16:39:29.312Z,7.20
2023-01-30T16:41:57.990Z,7.00
2023-01-30T16:44:27.458Z,7.20
2023-01-30T16:47:06.123Z,6.40
2023-01-30T16:49:37.127Z,6.00
2023-01-30T16:52:05.807Z,6.20
2023-01-30T16:54:35.398Z,6.60
2023-01-30T16:57:03.371Z,6.60
2023-01-30T16:59:33.146Z,6.10
2023-01-30T17:02:02.515Z,5.50
2023-01-30T17:04:33.585Z,5.60
2023-01-30T17:07:04.178Z,5.70
2023-01-30T17:09:48.630Z,5.70
2023-01-30T17:12:40.629Z,6.00
2023-01-30T17:15:09.911Z,5.40
2023-01-30T17:17:42.847Z,5.60
2023-01-30T17:20:12.385Z,5.40
2023-01-30T17:22:40.438Z,5.60
2023-01-30T17:25:16.566Z,5.90
2023-01-30T17:27:44.534Z,6.10
2023-01-30T17:30:16.385Z,5.50
2023-01-30T17:32:44.374Z,5.10
2023-01-30T17:35:12.659Z,4.80
2023-01-30T17:37:42.170Z,4.80
2023-01-30T17:40:18.156Z,5.90
2023-01-30T17:42:49.147Z,6.40
2023-01-30T17:45:17.597Z,5.90
2023-01-30T17:47:45.639Z,7.00
2023-01-30T17:50:14.112Z,8.70
2023-01-30T17:52:42.929Z,8.20
2023-01-30T17:55:14.260Z,9.40
2023-01-30T17:57:44.792Z,8.60
2023-01-30T18:00:18.975Z,10.10
2023-01-30T18:02:48.565Z,9.40
2023-01-30T18:05:23.603Z,7.90
2023-01-30T18:07:51.509Z,7.00
2023-01-30T18:10:20.049Z,7.30
2023-01-30T18:12:48.168Z,7.20
2023-01-30T18:15:16.346Z,7.40
2023-01-30T18:17:47.476Z,7.50
2023-01-30T18:20:18.381Z,7.50
2023-01-30T18:22:49.254Z,7.50
2023-01-30T18:25:17.833Z,7.10
2023-01-30T18:27:48.051Z,6.90
2023-01-30T18:30:17.590Z,6.80
2023-01-30T18:32:53.274Z,8.40
2023-01-30T18:35:23.531Z,6.80
2023-01-30T18:37:52.028Z,8.60
2023-01-30T18:40:20.505Z,8.70
2023-01-30T18:42:48.731Z,8.50
2023-01-30T18:45:16.605Z,7.10
2023-01-30T18:47:45.270Z,6.90
2023-01-30T18:50:13.316Z,7.40
2023-01-30T18:52:42.298Z,8.30
2023-01-30T18:55:12.124Z,7.30
2023-01-30T18:57:40.066Z,6.80
2023-01-30T19:00:08.733Z,8.10
2023-01-30T19:02:38.887Z,8.20
2023-01-30T19:05:07.212Z,7.50
2023-01-30T19:07:35.270Z,8.30
2023-01-30T19:10:04.175Z,6.50
2023-01-30T19:12:50.990Z,6.80
2023-01-30T19:15:18.918Z,6.20
2023-01-30T19:17:47.139Z,6.20
2023-01-30T19:20:15.049Z,6.30
2023-01-30T19:22:43.177Z,6.20
2023-01-30T19:25:11.153Z,5.50
2023-01-30T19:27:53.304Z,6.10
2023-01-30T19:30:22.555Z,6.30
2023-01-30T19:32:52.673Z,6.30
2023-01-30T19:35:20.968Z,6.60
2023-01-30T19:37:49.598Z,7.60
2023-01-30T19:40:18.010Z,8.00
2023-01-30T19:42:46.583Z,9.10
